Briefing drone pour Cran-gevrier

Rechercher une autre localisation

Conditions de vol :


Nous sommes le : Mardi 25 janvier 2022
Il est 23:39 UTC (00:39 LT)

Lever de soleil : 06:38 UTC (07:38 LT)
Coucher de soleil : 16:56 UTC (17:56 LT)

Météo

L'essentiel des conditions de vol

VIGILANCE MÉTÉO FRANCE - Haute-Savoie (74)
Pas de vigilances particulieres
CARTE TEMSI
CARTES DES FRONTS
METAR de LFLP
LFLP 242330Z AUTO 34001KT 4800 BR NSC M03/M04 Q1032

Date d'émission: 24/01/2022
Heure d'émission: 23:30 UTC
Vent: 340° pour 1 KT (2 km/h)
Visibilité horizontale: 4800 m
Plafond : Pas de nuages significatifs (NSC)
Température: -3 °C
Point de rosée: -4 °C
Humidité: 93%
Pression (QNH): 1032 hPa
Conditions: Brume
TAF de LFLP
AMD LFLP 242000Z 2420/2515 CNL

Conditions prévues :

Heure d'émission : Bulletin éffectué le 24 à 20:00 UTC
Prévision : Valide du 24 a 20:00 UTC au 25 a 15:00 UTC
Nuages : à 0ft (0 m)
WEBCAM POUR CRAN-GEVRIER

Réglementation

Voler en sécurité

CARTES AERONAUTIQUE 1/500.000
CARTES VAC (LFLP)
SUP AIP




Chargement des AIP...
NOTAM (CRAN-GEVRIER + Terrain à proximité / FIR )




Chargement des NOTAMS...
CONTACT PREFECTURE 74


Avertissement : Les données mises à disposition sont indicatives. Oxygène Drone ne pourra être tenu responsable de dégâts causés aux biens et aux personnes.